createdAt,value
2019-05-25T00:01:49.052Z,12.00
2019-05-25T00:04:16.468Z,12.33
2019-05-25T00:06:43.898Z,12.40
2019-05-25T00:09:11.443Z,12.27
2019-05-25T00:11:38.941Z,13.03
2019-05-25T00:14:06.586Z,11.23
2019-05-25T00:16:34.223Z,12.60
2019-05-25T00:19:01.782Z,11.63
2019-05-25T00:21:29.354Z,11.07
2019-05-25T00:24:11.160Z,11.43
2019-05-25T00:26:26.198Z,12.20
2019-05-25T00:28:53.800Z,12.57
2019-05-25T00:31:21.236Z,13.30
2019-05-25T00:33:48.751Z,12.70
2019-05-25T00:36:17.174Z,12.87
2019-05-25T00:38:44.721Z,11.90
2019-05-25T00:41:12.232Z,11.87
2019-05-25T00:43:39.766Z,13.43
2019-05-25T00:46:08.290Z,15.10
2019-05-25T00:48:35.735Z,12.90
2019-05-25T00:51:03.294Z,12.63
2019-05-25T00:53:31.019Z,11.77
2019-05-25T00:55:58.507Z,12.90
2019-05-25T00:58:26.058Z,12.13
2019-05-25T01:00:53.804Z,12.37
2019-05-25T01:03:21.324Z,12.77
2019-05-25T01:05:48.882Z,12.20
2019-05-25T01:08:16.330Z,13.30
2019-05-25T01:10:43.844Z,12.33
2019-05-25T01:13:11.417Z,12.73
2019-05-25T01:15:38.894Z,12.80
2019-05-25T01:18:06.337Z,12.67
2019-05-25T01:20:33.887Z,12.07
2019-05-25T01:23:01.422Z,11.83
2019-05-25T01:25:28.952Z,11.97
2019-05-25T01:27:56.471Z,12.60
2019-05-25T01:30:24.199Z,15.30
2019-05-25T01:32:51.837Z,11.97
2019-05-25T01:35:19.312Z,12.17
2019-05-25T01:37:48.607Z,12.37
2019-05-25T01:40:16.353Z,11.87
2019-05-25T01:42:43.873Z,12.40
2019-05-25T01:45:11.535Z,12.77
2019-05-25T01:47:39.291Z,12.37
2019-05-25T01:50:06.843Z,12.93
2019-05-25T01:52:34.387Z,13.03
2019-05-25T01:55:01.926Z,12.10
2019-05-25T01:57:29.446Z,13.00
2019-05-25T01:59:56.910Z,13.87
2019-05-25T02:02:24.427Z,13.60
2019-05-25T02:04:51.964Z,12.27
2019-05-25T02:07:19.355Z,13.27
2019-05-25T02:09:46.757Z,14.07
2019-05-25T02:12:14.210Z,12.50
2019-05-25T02:14:41.743Z,14.57
2019-05-25T02:17:10.347Z,12.73
2019-05-25T02:19:37.860Z,12.97
2019-05-25T02:22:05.360Z,13.43
2019-05-25T02:24:32.775Z,13.23
2019-05-25T02:27:00.332Z,14.33
2019-05-25T02:29:27.814Z,13.67
2019-05-25T02:31:55.467Z,14.67
2019-05-25T02:34:22.974Z,14.67
2019-05-25T02:36:50.669Z,13.93
2019-05-25T02:39:18.278Z,14.30
2019-05-25T02:41:47.304Z,14.07
2019-05-25T02:44:14.853Z,13.17
2019-05-25T02:46:42.359Z,13.43
2019-05-25T02:49:09.936Z,13.53
2019-05-25T02:51:37.433Z,14.20
2019-05-25T02:54:05.235Z,14.03
2019-05-25T02:56:32.821Z,13.43
2019-05-25T02:59:00.222Z,14.47
2019-05-25T03:01:27.735Z,13.57
2019-05-25T03:03:55.175Z,15.10
2019-05-25T03:06:22.913Z,15.43
2019-05-25T03:08:52.008Z,13.93
2019-05-25T03:11:20.066Z,14.40
2019-05-25T03:13:47.758Z,15.37
2019-05-25T03:16:15.497Z,13.63
2019-05-25T03:18:43.017Z,13.67
2019-05-25T03:21:10.529Z,13.73
2019-05-25T03:23:38.442Z,13.30
2019-05-25T03:26:05.852Z,13.03
2019-05-25T03:28:33.288Z,14.00
2019-05-25T03:31:00.701Z,14.13
2019-05-25T03:33:28.271Z,14.07
2019-05-25T03:35:55.824Z,13.20
2019-05-25T03:38:23.352Z,13.90
2019-05-25T03:40:50.790Z,12.27
2019-05-25T03:43:18.387Z,13.03
2019-05-25T03:45:45.903Z,14.50
2019-05-25T03:48:13.438Z,13.77
2019-05-25T03:50:40.946Z,12.40
2019-05-25T03:53:08.508Z,13.50
2019-05-25T03:55:36.006Z,12.73
2019-05-25T03:58:04.717Z,14.40
2019-05-25T04:00:33.766Z,14.50
2019-05-25T04:03:01.406Z,15.77
2019-05-25T04:05:28.977Z,13.83
2019-05-25T04:07:56.584Z,15.03
2019-05-25T04:10:24.196Z,14.70
2019-05-25T04:12:51.729Z,15.63
2019-05-25T04:15:19.232Z,14.40
2019-05-25T04:17:46.688Z,14.23
2019-05-25T04:20:14.224Z,13.53
2019-05-25T04:22:41.763Z,15.63
2019-05-25T04:25:09.191Z,15.43
2019-05-25T04:27:36.732Z,14.53
2019-05-25T04:30:04.731Z,14.03
2019-05-25T04:32:32.267Z,16.00
2019-05-25T04:34:59.880Z,14.47
2019-05-25T04:37:27.383Z,16.03
2019-05-25T04:39:54.908Z,14.03
2019-05-25T04:42:22.442Z,15.83
2019-05-25T04:44:49.984Z,15.87
2019-05-25T04:47:26.509Z,16.33
2019-05-25T04:49:46.858Z,16.83
2019-05-25T04:52:14.355Z,16.47
2019-05-25T04:54:41.905Z,16.80
2019-05-25T04:57:09.546Z,17.20
2019-05-25T04:59:37.060Z,16.40
2019-05-25T05:02:04.569Z,18.90
2019-05-25T05:04:32.125Z,16.90
2019-05-25T05:06:59.666Z,18.03
2019-05-25T05:09:27.113Z,18.60
2019-05-25T05:11:54.616Z,20.50
2019-05-25T05:14:22.169Z,17.17
2019-05-25T05:16:49.598Z,17.17
2019-05-25T05:19:17.144Z,16.00
2019-05-25T05:21:44.670Z,16.40
2019-05-25T05:24:14.220Z,15.53
2019-05-25T05:26:55.218Z,15.77
2019-05-25T05:29:13.299Z,17.43
2019-05-25T05:31:40.866Z,18.20
2019-05-25T05:34:09.802Z,17.00
2019-05-25T05:36:38.370Z,16.53
2019-05-25T05:39:07.532Z,18.57
2019-05-25T05:41:37.548Z,17.10
2019-05-25T05:44:05.434Z,17.50
2019-05-25T05:46:33.683Z,18.03
2019-05-25T05:49:02.121Z,19.03
2019-05-25T05:51:33.802Z,17.60
2019-05-25T05:54:02.653Z,19.37
2019-05-25T05:56:32.351Z,20.50
2019-05-25T05:59:00.027Z,16.03
2019-05-25T06:01:30.662Z,16.70
2019-05-25T06:04:00.265Z,16.53
2019-05-25T06:06:27.827Z,15.63
2019-05-25T06:09:01.314Z,15.77
2019-05-25T06:11:29.367Z,15.00
2019-05-25T06:13:59.589Z,13.20
2019-05-25T06:16:28.985Z,16.60
2019-05-25T06:18:56.470Z,14.97
2019-05-25T06:21:52.329Z,12.50
2019-05-25T06:24:19.827Z,11.97
2019-05-25T06:26:48.479Z,14.40
2019-05-25T06:29:24.725Z,11.80
2019-05-25T06:31:52.317Z,15.40
2019-05-25T06:34:19.832Z,13.47
2019-05-25T06:36:47.402Z,12.90
2019-05-25T06:39:14.911Z,14.13
2019-05-25T06:41:42.429Z,14.67
2019-05-25T06:44:10.013Z,18.20
2019-05-25T06:46:39.799Z,13.77
2019-05-25T06:49:06.960Z,14.77
2019-05-25T06:51:38.852Z,13.53
2019-05-25T06:54:06.399Z,13.93
2019-05-25T06:56:33.995Z,14.17
2019-05-25T06:59:01.498Z,13.67
2019-05-25T07:01:29.069Z,14.93
2019-05-25T07:03:56.583Z,13.27
2019-05-25T07:06:24.135Z,13.40
2019-05-25T07:08:51.674Z,15.23
2019-05-25T07:11:19.254Z,16.27
2019-05-25T07:13:46.999Z,16.70
2019-05-25T07:16:14.546Z,14.77
2019-05-25T07:18:42.028Z,17.10
2019-05-25T07:21:09.497Z,15.93
2019-05-25T07:23:37.378Z,13.37
2019-05-25T07:26:05.032Z,12.87
2019-05-25T07:28:32.541Z,16.47
2019-05-25T07:31:00.148Z,13.70
2019-05-25T07:33:27.669Z,13.77
2019-05-25T07:35:57.045Z,14.33
2019-05-25T07:38:24.572Z,14.47
2019-05-25T07:40:52.989Z,14.87
2019-05-25T07:43:20.549Z,14.23
2019-05-25T07:45:51.323Z,16.47
2019-05-25T07:48:23.303Z,15.77
2019-05-25T07:50:50.893Z,14.50
2019-05-25T07:53:18.452Z,16.23
2019-05-25T07:55:45.979Z,14.50
2019-05-25T07:58:17.493Z,16.63
2019-05-25T08:00:43.800Z,14.70
2019-05-25T08:03:11.336Z,17.77
2019-05-25T08:05:38.870Z,15.70
2019-05-25T08:08:06.322Z,16.70
2019-05-25T08:10:33.865Z,15.70
2019-05-25T08:13:01.423Z,17.67
2019-05-25T08:15:28.950Z,14.47
2019-05-25T08:17:56.490Z,15.63
2019-05-25T08:20:24.026Z,16.33
2019-05-25T08:22:51.561Z,13.83
2019-05-25T08:25:19.115Z,15.33
2019-05-25T08:27:46.663Z,14.97
2019-05-25T08:30:14.201Z,15.80
2019-05-25T08:32:43.462Z,13.40
2019-05-25T08:35:11.378Z,13.27
2019-05-25T08:37:38.890Z,16.07
2019-05-25T08:40:07.438Z,13.93
2019-05-25T08:42:35.023Z,14.33
2019-05-25T08:45:02.777Z,15.53
2019-05-25T08:47:30.340Z,13.83
2019-05-25T08:49:57.854Z,14.60
2019-05-25T08:52:25.431Z,15.53
2019-05-25T08:54:52.963Z,14.73
2019-05-25T08:57:20.521Z,15.07
2019-05-25T08:59:48.066Z,16.03
2019-05-25T09:02:15.602Z,16.83
2019-05-25T09:04:43.147Z,18.37
2019-05-25T09:07:10.693Z,15.90
2019-05-25T09:09:38.200Z,16.27
2019-05-25T09:12:05.740Z,18.77
2019-05-25T09:14:33.331Z,17.63
2019-05-25T09:17:00.794Z,15.73
2019-05-25T09:19:28.377Z,18.37
2019-05-25T09:22:02.466Z,17.17
2019-05-25T09:24:25.221Z,18.37
2019-05-25T09:26:52.749Z,19.57
2019-05-25T09:29:20.320Z,18.47
2019-05-25T09:31:47.895Z,16.60
2019-05-25T09:34:15.462Z,19.40
2019-05-25T09:36:43.989Z,18.73
2019-05-25T09:39:11.567Z,17.77
2019-05-25T09:41:39.164Z,17.17
2019-05-25T09:44:06.660Z,16.67
2019-05-25T09:46:36.955Z,15.63
2019-05-25T09:49:04.549Z,17.13
2019-05-25T09:51:32.126Z,13.87
2019-05-25T09:53:59.638Z,12.57
2019-05-25T09:56:28.192Z,10.43
2019-05-25T09:58:55.723Z,10.53
2019-05-25T10:01:23.254Z,11.47
2019-05-25T10:03:50.809Z,12.57
2019-05-25T10:06:18.411Z,13.03
2019-05-25T10:08:45.932Z,11.93
2019-05-25T10:11:13.368Z,12.93
2019-05-25T10:13:40.905Z,15.47
2019-05-25T10:16:08.496Z,13.47
2019-05-25T10:18:44.654Z,16.87
2019-05-25T10:21:14.779Z,12.70
2019-05-25T10:23:41.534Z,12.90
2019-05-25T10:26:09.090Z,11.50
2019-05-25T10:28:36.652Z,16.40
2019-05-25T10:31:04.462Z,13.73
2019-05-25T10:33:32.139Z,14.23
2019-05-25T10:35:59.762Z,14.07
2019-05-25T10:38:27.261Z,13.53
2019-05-25T10:40:57.922Z,11.57
2019-05-25T10:43:24.095Z,12.43
2019-05-25T10:45:51.666Z,13.57
2019-05-25T10:48:19.076Z,14.83
2019-05-25T10:50:46.735Z,12.73
2019-05-25T10:53:17.072Z,11.10
2019-05-25T10:55:44.702Z,12.03
2019-05-25T10:58:12.445Z,9.53
2019-05-25T11:00:39.979Z,11.90
2019-05-25T11:03:07.522Z,10.77
2019-05-25T11:05:35.046Z,9.57
2019-05-25T11:08:02.555Z,10.43
2019-05-25T11:10:30.081Z,12.03
2019-05-25T11:12:57.605Z,14.10
2019-05-25T11:15:25.150Z,9.33
2019-05-25T11:17:52.665Z,10.07
2019-05-25T11:20:20.384Z,8.70
2019-05-25T11:22:47.889Z,8.93
2019-05-25T11:25:17.080Z,9.40
2019-05-25T11:27:44.606Z,9.13
2019-05-25T11:30:12.405Z,10.17
2019-05-25T11:32:39.995Z,9.60
2019-05-25T11:35:07.734Z,9.33
2019-05-25T11:37:35.231Z,8.83
2019-05-25T11:40:03.701Z,9.33
2019-05-25T11:42:31.169Z,7.50
2019-05-25T11:44:58.730Z,8.70
2019-05-25T11:47:27.311Z,8.47
2019-05-25T11:49:54.835Z,8.43
2019-05-25T11:52:22.373Z,7.47
2019-05-25T11:54:49.940Z,7.13
2019-05-25T11:57:17.571Z,6.60
2019-05-25T11:59:45.141Z,7.37
2019-05-25T12:02:12.594Z,6.77
2019-05-25T12:04:40.171Z,6.33
2019-05-25T12:07:07.746Z,5.67
2019-05-25T12:09:35.269Z,5.07
2019-05-25T12:12:02.948Z,4.97
2019-05-25T12:14:30.581Z,5.63
2019-05-25T12:16:58.229Z,6.10
2019-05-25T12:19:25.678Z,6.83
2019-05-25T12:21:53.222Z,6.53
2019-05-25T12:24:20.822Z,5.53
2019-05-25T12:26:48.380Z,5.63
2019-05-25T12:29:15.925Z,5.10
2019-05-25T12:31:43.470Z,5.90
2019-05-25T12:34:12.222Z,6.60
2019-05-25T12:36:40.827Z,6.10
2019-05-25T12:39:08.382Z,7.20
2019-05-25T12:41:35.910Z,6.97
2019-05-25T12:44:06.445Z,7.57
2019-05-25T12:46:35.021Z,7.73
2019-05-25T12:49:02.554Z,9.03
2019-05-25T12:51:30.102Z,10.33
2019-05-25T12:53:57.652Z,9.73
2019-05-25T12:56:26.473Z,9.57
2019-05-25T12:58:53.938Z,9.87
2019-05-25T13:01:21.595Z,10.10
2019-05-25T13:03:50.463Z,10.97
2019-05-25T13:06:18.492Z,9.63
2019-05-25T13:08:46.190Z,10.43
2019-05-25T13:11:13.768Z,9.67
2019-05-25T13:13:41.277Z,9.73
2019-05-25T13:16:09.821Z,11.17
2019-05-25T13:18:37.395Z,9.70
2019-05-25T13:21:04.909Z,10.93
2019-05-25T13:23:32.377Z,11.30
2019-05-25T13:25:59.909Z,9.97
2019-05-25T13:28:27.448Z,10.00
2019-05-25T13:30:54.959Z,9.80
2019-05-25T13:33:22.554Z,9.97
2019-05-25T13:35:50.088Z,10.47
2019-05-25T13:38:17.613Z,10.10
2019-05-25T13:40:45.164Z,11.53
2019-05-25T13:43:14.142Z,11.80
2019-05-25T13:45:41.741Z,10.50
2019-05-25T13:48:10.387Z,9.97
2019-05-25T13:50:40.176Z,10.10
2019-05-25T13:53:07.755Z,11.23
2019-05-25T13:55:35.279Z,12.50
2019-05-25T13:58:02.805Z,11.03
2019-05-25T14:00:30.317Z,10.03
2019-05-25T14:02:57.864Z,10.87
2019-05-25T14:05:25.307Z,10.20
2019-05-25T14:07:52.774Z,10.37
2019-05-25T14:10:20.293Z,9.57
2019-05-25T14:12:47.812Z,10.03
2019-05-25T14:15:15.685Z,9.43
2019-05-25T14:17:44.190Z,10.07
2019-05-25T14:20:11.689Z,9.97
2019-05-25T14:22:39.458Z,9.20
2019-05-25T14:25:08.616Z,10.27
2019-05-25T14:27:36.162Z,10.90
2019-05-25T14:30:05.858Z,11.43
2019-05-25T14:32:33.405Z,11.53
2019-05-25T14:35:01.007Z,11.63
2019-05-25T14:37:28.504Z,12.50
2019-05-25T14:39:56.046Z,11.30
2019-05-25T14:42:23.629Z,10.33
2019-05-25T14:44:51.166Z,10.33
2019-05-25T14:47:18.700Z,11.83
2019-05-25T14:49:46.198Z,11.40
2019-05-25T14:52:13.743Z,13.07
2019-05-25T14:54:41.291Z,12.13
2019-05-25T14:57:08.827Z,11.60
2019-05-25T14:59:36.538Z,10.73
2019-05-25T15:02:04.276Z,11.57
2019-05-25T15:04:31.815Z,11.07
2019-05-25T15:07:01.560Z,11.57
2019-05-25T15:09:29.009Z,9.73
2019-05-25T15:11:56.525Z,10.83
2019-05-25T15:14:24.080Z,10.20
2019-05-25T15:16:51.637Z,9.77
2019-05-25T15:19:20.984Z,9.60
2019-05-25T15:21:48.639Z,10.30
2019-05-25T15:24:16.139Z,9.80
2019-05-25T15:26:43.645Z,9.47
2019-05-25T15:29:11.671Z,9.17
2019-05-25T15:31:39.224Z,10.03
2019-05-25T15:34:06.764Z,11.00
2019-05-25T15:36:34.299Z,9.67
2019-05-25T15:39:01.880Z,9.97
2019-05-25T15:41:29.428Z,9.67
2019-05-25T15:43:59.029Z,9.10
2019-05-25T15:46:26.557Z,9.80
2019-05-25T15:48:54.152Z,9.77
2019-05-25T15:51:21.760Z,9.80
2019-05-25T15:53:50.143Z,8.87
2019-05-25T15:56:17.698Z,8.80
2019-05-25T15:58:45.248Z,7.63
2019-05-25T16:01:14.832Z,6.77
2019-05-25T16:03:42.364Z,6.47
2019-05-25T16:06:09.893Z,6.73
2019-05-25T16:08:37.478Z,6.07
2019-05-25T16:11:07.025Z,7.33
2019-05-25T16:13:34.554Z,6.53
2019-05-25T16:16:02.101Z,6.60
2019-05-25T16:18:29.837Z,7.63
2019-05-25T16:20:59.427Z,7.10
2019-05-25T16:23:27.066Z,6.83
2019-05-25T16:25:54.662Z,6.43
2019-05-25T16:28:22.196Z,7.00
2019-05-25T16:30:52.097Z,6.73
2019-05-25T16:33:19.603Z,7.30
2019-05-25T16:35:47.177Z,6.80
2019-05-25T16:38:14.762Z,7.17
2019-05-25T16:40:45.206Z,8.50
2019-05-25T16:43:12.855Z,8.30
2019-05-25T16:45:40.423Z,7.17
2019-05-25T16:48:10.015Z,7.03
2019-05-25T16:50:37.591Z,8.87
2019-05-25T16:53:05.150Z,6.97
2019-05-25T16:55:32.773Z,7.60
2019-05-25T16:58:02.315Z,8.37
2019-05-25T17:00:31.922Z,6.20
2019-05-25T17:02:59.783Z,6.57
2019-05-25T17:05:27.427Z,6.83
2019-05-25T17:07:58.956Z,7.10
2019-05-25T17:10:26.680Z,6.80
2019-05-25T17:12:54.231Z,6.50
2019-05-25T17:15:21.993Z,5.73
2019-05-25T17:17:49.621Z,7.77
2019-05-25T17:20:17.394Z,6.10
2019-05-25T17:22:45.157Z,6.83
2019-05-25T17:25:13.184Z,8.33
2019-05-25T17:27:41.043Z,7.57
2019-05-25T17:30:09.680Z,7.20
2019-05-25T17:32:39.511Z,6.53
2019-05-25T17:35:07.255Z,7.20
2019-05-25T17:37:34.860Z,7.07
2019-05-25T17:40:02.508Z,7.30
2019-05-25T17:42:30.114Z,7.63
2019-05-25T17:44:57.680Z,9.87
2019-05-25T17:47:25.365Z,12.53
2019-05-25T17:49:52.959Z,12.73
2019-05-25T17:52:22.970Z,13.67
2019-05-25T17:54:49.962Z,12.23
2019-05-25T17:57:21.334Z,13.50
2019-05-25T17:59:49.324Z,15.93
2019-05-25T18:02:18.064Z,16.90
2019-05-25T18:04:45.679Z,18.27
2019-05-25T18:07:13.382Z,18.07
2019-05-25T18:09:42.182Z,19.10
2019-05-25T18:12:09.870Z,20.00
2019-05-25T18:14:37.466Z,22.07
2019-05-25T18:17:08.138Z,20.37
2019-05-25T18:19:35.743Z,21.93
2019-05-25T18:22:03.450Z,20.97
2019-05-25T18:24:31.045Z,20.53
2019-05-25T18:26:58.776Z,20.10
2019-05-25T18:29:26.375Z,21.33
2019-05-25T18:31:56.965Z,19.60
2019-05-25T18:34:24.619Z,19.00
2019-05-25T18:36:52.347Z,21.67
2019-05-25T18:39:22.691Z,20.27
2019-05-25T18:41:50.357Z,21.97
2019-05-25T18:44:23.058Z,21.40
2019-05-25T18:46:53.735Z,20.13
2019-05-25T18:49:24.614Z,21.83
2019-05-25T18:51:58.037Z,20.57
2019-05-25T18:54:26.789Z,20.40
2019-05-25T18:56:55.761Z,21.17
2019-05-25T18:59:23.355Z,24.30
2019-05-25T19:01:51.620Z,21.30
2019-05-25T19:04:19.271Z,23.97
2019-05-25T19:06:48.480Z,25.97
2019-05-25T19:09:19.079Z,25.00
2019-05-25T19:11:46.833Z,22.73
2019-05-25T19:14:15.598Z,21.50
2019-05-25T19:16:48.715Z,23.03
2019-05-25T19:19:26.791Z,21.40
2019-05-25T19:21:57.408Z,20.47
2019-05-25T19:24:26.116Z,19.90
2019-05-25T19:26:58.171Z,19.43
2019-05-25T19:29:26.235Z,20.00
2019-05-25T19:31:53.896Z,19.07
2019-05-25T19:34:22.839Z,19.33
2019-05-25T19:36:54.007Z,18.07
2019-05-25T19:39:21.625Z,17.63
2019-05-25T19:41:52.008Z,17.33
2019-05-25T19:44:41.852Z,17.17
2019-05-25T19:47:09.445Z,16.93
2019-05-25T19:49:37.118Z,15.97
2019-05-25T19:52:04.721Z,14.80
2019-05-25T19:54:32.635Z,15.17
2019-05-25T19:57:01.177Z,14.20
2019-05-25T19:59:28.852Z,15.03
2019-05-25T20:01:56.432Z,14.07
2019-05-25T20:04:24.026Z,14.60
2019-05-25T20:06:52.749Z,13.77
2019-05-25T20:09:22.565Z,12.40
2019-05-25T20:11:50.177Z,13.17
2019-05-25T20:14:18.199Z,12.33
2019-05-25T20:16:46.784Z,11.43
2019-05-25T20:19:20.173Z,9.50
2019-05-25T20:21:48.136Z,9.10
2019-05-25T20:24:16.203Z,7.63
2019-05-25T20:26:44.066Z,7.07
2019-05-25T20:29:13.083Z,8.80
2019-05-25T20:31:40.930Z,6.40
2019-05-25T20:34:08.645Z,6.80
2019-05-25T20:36:43.937Z,7.17
2019-05-25T20:39:11.490Z,7.17
2019-05-25T20:41:39.065Z,6.60
2019-05-25T20:44:06.608Z,6.60
2019-05-25T20:46:34.241Z,7.33
2019-05-25T20:49:01.905Z,7.60
2019-05-25T20:51:29.502Z,6.93
2019-05-25T20:53:57.160Z,7.00
2019-05-25T20:56:24.891Z,7.13
2019-05-25T20:58:52.681Z,7.27
2019-05-25T21:01:20.291Z,7.50
2019-05-25T21:03:47.923Z,7.33
2019-05-25T21:06:17.552Z,9.03
2019-05-25T21:08:45.211Z,8.13
2019-05-25T21:11:12.771Z,9.67
2019-05-25T21:13:40.499Z,9.03
2019-05-25T21:16:08.097Z,9.30
2019-05-25T21:18:35.768Z,9.87
2019-05-25T21:21:05.125Z,9.27
2019-05-25T21:23:32.731Z,9.83
2019-05-25T21:26:00.317Z,8.60
2019-05-25T21:28:27.921Z,8.97
2019-05-25T21:30:56.059Z,11.30
2019-05-25T21:33:23.640Z,10.70
2019-05-25T21:36:06.837Z,9.80
2019-05-25T21:39:01.685Z,9.20
2019-05-25T21:41:51.114Z,10.20
2019-05-25T21:44:47.634Z,10.77
2019-05-25T21:47:15.264Z,11.07
2019-05-25T21:49:42.810Z,11.77
2019-05-25T21:52:15.347Z,11.23
2019-05-25T21:54:43.095Z,10.30
2019-05-25T21:57:11.823Z,10.67
2019-05-25T21:59:41.487Z,11.37
2019-05-25T22:02:11.899Z,11.30
2019-05-25T22:04:40.858Z,10.77
2019-05-25T22:07:12.414Z,12.13
2019-05-25T22:09:41.975Z,10.50
2019-05-25T22:12:14.708Z,11.37
2019-05-25T22:14:44.010Z,11.83
2019-05-25T22:17:11.729Z,12.67
2019-05-25T22:19:39.450Z,11.93
2019-05-25T22:22:13.081Z,11.73
2019-05-25T22:24:43.587Z,12.67
2019-05-25T22:27:14.187Z,12.47
2019-05-25T22:29:42.997Z,13.23
2019-05-25T22:32:12.998Z,12.63
2019-05-25T22:34:40.614Z,11.97
2019-05-25T22:37:08.654Z,13.13
2019-05-25T22:39:36.584Z,12.43
2019-05-25T22:42:07.119Z,11.73
2019-05-25T22:44:36.648Z,12.70
2019-05-25T22:47:05.251Z,12.27
2019-05-25T22:49:37.021Z,12.27
2019-05-25T22:52:02.297Z,13.47
2019-05-25T22:54:32.139Z,10.83
2019-05-25T22:57:02.610Z,12.60
2019-05-25T22:59:31.521Z,11.27
2019-05-25T23:01:59.232Z,10.90
2019-05-25T23:04:26.815Z,12.80
2019-05-25T23:06:58.330Z,12.67
2019-05-25T23:09:25.254Z,12.50
2019-05-25T23:11:52.948Z,12.43
2019-05-25T23:14:23.269Z,12.17
2019-05-25T23:16:50.917Z,12.90
2019-05-25T23:19:18.637Z,12.17
2019-05-25T23:21:46.221Z,13.10
2019-05-25T23:24:13.891Z,11.10
2019-05-25T23:26:44.511Z,10.70
2019-05-25T23:29:15.350Z,11.60
2019-05-25T23:31:45.675Z,12.43
2019-05-25T23:34:13.299Z,13.70
2019-05-25T23:36:41.269Z,13.50
2019-05-25T23:39:08.795Z,12.30
2019-05-25T23:41:37.376Z,13.50
2019-05-25T23:44:04.954Z,14.27
2019-05-25T23:46:32.535Z,15.37
2019-05-25T23:49:00.054Z,12.97
2019-05-25T23:51:27.746Z,14.90
2019-05-25T23:53:55.399Z,13.20
2019-05-25T23:56:23.938Z,12.50
2019-05-25T23:58:51.501Z,12.17
